createdAt,value
2022-12-29T00:00:20.998Z,11.60
2022-12-29T00:02:48.246Z,11.60
2022-12-29T00:05:15.361Z,11.60
2022-12-29T00:07:42.416Z,11.60
2022-12-29T00:10:09.680Z,11.60
2022-12-29T00:12:56.574Z,11.60
2022-12-29T00:15:38.792Z,11.60
2022-12-29T00:18:06.533Z,11.70
2022-12-29T00:20:56.783Z,11.70
2022-12-29T00:23:43.046Z,11.80
2022-12-29T00:26:34.760Z,11.90
2022-12-29T00:29:19.940Z,11.90
2022-12-29T00:32:08.293Z,11.90
2022-12-29T00:34:54.520Z,11.90
2022-12-29T00:37:44.438Z,11.90
2022-12-29T00:40:30.201Z,11.90
2022-12-29T00:43:18.611Z,11.90
2022-12-29T00:45:48.580Z,12.00
2022-12-29T00:48:38.184Z,12.00
2022-12-29T00:51:34.849Z,12.00
2022-12-29T00:54:12.893Z,12.00
2022-12-29T00:56:42.259Z,12.00
2022-12-29T00:59:11.375Z,12.00
2022-12-29T01:01:39.299Z,12.00
2022-12-29T01:04:06.978Z,12.00
2022-12-29T01:06:35.010Z,12.00
2022-12-29T01:09:22.597Z,12.00
2022-12-29T01:11:49.694Z,11.90
2022-12-29T01:14:20.783Z,11.90
2022-12-29T01:16:56.722Z,11.80
2022-12-29T01:19:24.353Z,11.70
2022-12-29T01:21:52.781Z,11.50
2022-12-29T01:24:21.736Z,11.50
2022-12-29T01:26:49.505Z,11.30
2022-12-29T01:29:18.883Z,11.20
2022-12-29T01:31:50.791Z,11.10
2022-12-29T01:34:18.773Z,11.20
2022-12-29T01:36:46.758Z,11.10
2022-12-29T01:39:14.340Z,11.00
2022-12-29T01:41:45.244Z,11.10
2022-12-29T01:44:49.458Z,11.10
2022-12-29T01:47:45.127Z,11.10
2022-12-29T01:50:18.927Z,11.10
2022-12-29T01:53:10.296Z,11.10
2022-12-29T01:55:50.942Z,11.10
2022-12-29T01:58:22.769Z,11.10
2022-12-29T02:00:50.884Z,11.10
2022-12-29T02:03:22.726Z,11.20
2022-12-29T02:06:09.587Z,11.20
2022-12-29T02:08:40.096Z,11.20
2022-12-29T02:11:08.143Z,11.20
2022-12-29T02:13:35.623Z,11.10
2022-12-29T02:16:22.141Z,10.90
2022-12-29T02:19:09.643Z,10.70
2022-12-29T02:22:04.092Z,10.70
2022-12-29T02:24:52.696Z,10.50
2022-12-29T02:27:42.168Z,10.50
2022-12-29T02:30:16.260Z,10.40
2022-12-29T02:33:07.520Z,10.40
2022-12-29T02:35:44.588Z,10.40
2022-12-29T02:38:54.485Z,10.30
2022-12-29T02:41:50.834Z,10.20
2022-12-29T02:44:28.670Z,10.30
2022-12-29T02:47:04.842Z,10.20
2022-12-29T02:49:42.985Z,10.00
2022-12-29T02:52:26.344Z,10.00
2022-12-29T02:54:55.624Z,10.00
2022-12-29T02:57:22.468Z,10.00
2022-12-29T02:59:58.059Z,10.00
2022-12-29T03:02:50.934Z,10.00
2022-12-29T03:05:24.496Z,10.00
2022-12-29T03:08:34.187Z,9.90
2022-12-29T03:11:28.492Z,9.80
2022-12-29T03:14:49.592Z,9.80
2022-12-29T03:17:40.062Z,9.80
2022-12-29T03:20:19.155Z,9.60
2022-12-29T03:22:51.033Z,9.50
2022-12-29T03:25:36.528Z,9.50
2022-12-29T03:28:14.036Z,9.50
2022-12-29T03:30:47.531Z,9.70
2022-12-29T03:33:23.851Z,9.70
2022-12-29T03:35:54.741Z,9.70
2022-12-29T03:38:28.761Z,9.70
2022-12-29T03:41:03.117Z,9.80
2022-12-29T03:43:30.956Z,9.90
2022-12-29T03:46:01.185Z,9.90
2022-12-29T03:48:28.167Z,10.10
2022-12-29T03:50:57.304Z,10.10
2022-12-29T03:53:25.664Z,10.10
2022-12-29T03:56:23.634Z,10.20
2022-12-29T03:58:52.400Z,10.20
2022-12-29T04:01:26.077Z,10.20
2022-12-29T04:03:54.375Z,10.20
2022-12-29T04:06:21.312Z,10.20
2022-12-29T04:09:04.018Z,10.20
2022-12-29T04:11:34.815Z,10.20
2022-12-29T04:14:04.885Z,10.10
2022-12-29T04:16:36.569Z,10.10
2022-12-29T04:19:05.253Z,10.10
2022-12-29T04:21:33.089Z,10.10
2022-12-29T04:24:03.227Z,10.10
2022-12-29T04:26:34.293Z,10.10
2022-12-29T04:29:12.948Z,10.00
2022-12-29T04:32:03.176Z,10.00
2022-12-29T04:34:34.295Z,10.00
2022-12-29T04:37:01.331Z,10.00
2022-12-29T04:39:29.158Z,10.00
2022-12-29T04:41:56.343Z,10.00
2022-12-29T04:44:24.215Z,10.10
2022-12-29T04:47:24.388Z,10.10
2022-12-29T04:50:17.657Z,10.20
2022-12-29T04:52:55.419Z,10.30
2022-12-29T04:55:22.488Z,10.30
2022-12-29T04:57:50.483Z,10.40
2022-12-29T05:00:19.930Z,10.40
2022-12-29T05:02:48.032Z,10.40
2022-12-29T05:05:16.079Z,10.40
2022-12-29T05:07:48.388Z,10.40
2022-12-29T05:10:15.478Z,10.50
2022-12-29T05:12:42.819Z,10.50
2022-12-29T05:15:11.693Z,10.50
2022-12-29T05:17:39.564Z,10.50
2022-12-29T05:20:08.936Z,10.50
2022-12-29T05:22:37.927Z,10.60
2022-12-29T05:25:07.655Z,10.60
2022-12-29T05:27:46.118Z,10.60
2022-12-29T05:30:25.319Z,10.60
2022-12-29T05:32:54.811Z,10.60
2022-12-29T05:35:22.694Z,10.60
2022-12-29T05:37:49.758Z,10.60
2022-12-29T05:40:16.741Z,10.60
2022-12-29T05:42:44.705Z,10.60
2022-12-29T05:45:33.882Z,10.70
2022-12-29T05:48:29.550Z,10.70
2022-12-29T05:51:25.413Z,10.70
2022-12-29T05:53:54.227Z,10.70
2022-12-29T05:56:23.592Z,10.70
2022-12-29T05:58:58.454Z,10.60
2022-12-29T06:01:25.490Z,10.60
2022-12-29T06:03:53.443Z,10.60
2022-12-29T06:06:21.762Z,10.60
2022-12-29T06:08:48.763Z,10.60
2022-12-29T06:11:15.809Z,10.60
2022-12-29T06:13:49.808Z,10.60
2022-12-29T06:16:16.789Z,10.60
2022-12-29T06:18:44.902Z,10.60
2022-12-29T06:21:11.905Z,10.60
2022-12-29T06:23:39.687Z,10.50
2022-12-29T06:26:10.139Z,10.60
2022-12-29T06:28:41.823Z,10.60
2022-12-29T06:31:12.810Z,10.60
2022-12-29T06:33:40.195Z,10.60
2022-12-29T06:36:07.736Z,10.60
2022-12-29T06:38:36.207Z,10.70
2022-12-29T06:41:03.150Z,10.70
2022-12-29T06:43:39.094Z,10.70
2022-12-29T06:46:16.075Z,10.80
2022-12-29T06:48:44.128Z,10.80
2022-12-29T06:51:13.187Z,10.80
2022-12-29T06:53:42.265Z,10.80
2022-12-29T06:56:09.110Z,10.80
2022-12-29T06:58:36.130Z,10.80
2022-12-29T07:01:03.061Z,10.70
2022-12-29T07:03:30.306Z,10.80
2022-12-29T07:05:59.021Z,10.80
2022-12-29T07:08:26.167Z,10.80
2022-12-29T07:10:53.016Z,10.70
2022-12-29T07:13:20.229Z,10.70
2022-12-29T07:15:47.762Z,10.70
2022-12-29T07:18:14.665Z,10.70
2022-12-29T07:20:41.569Z,10.70
2022-12-29T07:23:08.580Z,10.70
2022-12-29T07:25:36.948Z,10.70
2022-12-29T07:28:04.908Z,10.80
2022-12-29T07:30:31.866Z,10.70
2022-12-29T07:32:58.711Z,10.80
2022-12-29T07:35:25.601Z,10.80
2022-12-29T07:37:53.558Z,10.70
2022-12-29T07:40:20.671Z,10.70
2022-12-29T07:42:51.110Z,10.70
2022-12-29T07:45:28.090Z,10.80
2022-12-29T07:48:08.694Z,10.80
2022-12-29T07:50:37.130Z,10.80
2022-12-29T07:53:04.341Z,10.70
2022-12-29T07:55:32.505Z,10.70
2022-12-29T07:58:00.453Z,10.70
2022-12-29T08:00:27.450Z,10.70
2022-12-29T08:02:54.870Z,10.70
2022-12-29T08:05:23.168Z,10.70
2022-12-29T08:07:52.033Z,10.70
2022-12-29T08:10:19.108Z,10.70
2022-12-29T08:12:46.063Z,10.70
2022-12-29T08:15:14.073Z,10.70
2022-12-29T08:17:41.401Z,10.70
2022-12-29T08:20:15.632Z,10.70
2022-12-29T08:22:46.523Z,10.70
2022-12-29T08:25:14.108Z,10.70
2022-12-29T08:27:41.964Z,10.70
2022-12-29T08:30:10.822Z,10.60
2022-12-29T08:32:37.657Z,10.60
2022-12-29T08:35:06.010Z,10.70
2022-12-29T08:37:34.306Z,10.60
2022-12-29T08:40:04.607Z,10.60
2022-12-29T08:42:34.656Z,10.70
2022-12-29T08:45:03.977Z,10.60
2022-12-29T08:47:30.852Z,10.70
2022-12-29T08:49:58.807Z,10.70
2022-12-29T08:52:26.760Z,10.70
2022-12-29T08:54:53.852Z,10.70
2022-12-29T08:57:25.833Z,10.80
2022-12-29T09:00:06.098Z,10.80
2022-12-29T09:02:34.273Z,10.70
2022-12-29T09:05:05.396Z,10.80
2022-12-29T09:07:58.558Z,10.80
2022-12-29T09:10:25.374Z,10.70
2022-12-29T09:12:53.327Z,10.60
2022-12-29T09:15:20.570Z,10.60
2022-12-29T09:17:47.448Z,10.60
2022-12-29T09:20:17.049Z,10.60
2022-12-29T09:22:44.679Z,10.60
2022-12-29T09:25:12.812Z,10.70
2022-12-29T09:27:40.043Z,10.70
2022-12-29T09:30:10.188Z,10.60
2022-12-29T09:32:44.578Z,10.60
2022-12-29T09:35:12.734Z,10.60
2022-12-29T09:37:39.781Z,10.50
2022-12-29T09:40:08.497Z,10.60
2022-12-29T09:42:38.448Z,10.60
2022-12-29T09:45:09.512Z,10.60
2022-12-29T09:47:36.967Z,10.70
2022-12-29T09:50:18.319Z,10.80
2022-12-29T09:53:05.329Z,10.80
2022-12-29T09:55:39.240Z,10.90
2022-12-29T09:58:43.746Z,10.80
2022-12-29T10:01:28.567Z,10.80
2022-12-29T10:04:00.675Z,10.80
2022-12-29T10:07:28.415Z,10.80
2022-12-29T10:10:08.689Z,10.70
2022-12-29T10:12:55.819Z,10.60
2022-12-29T10:15:32.799Z,10.70
2022-12-29T10:18:28.960Z,10.70
2022-12-29T10:21:23.822Z,10.70
2022-12-29T10:23:53.951Z,10.70
2022-12-29T10:26:26.799Z,10.70
2022-12-29T10:28:59.044Z,10.70
2022-12-29T10:31:57.315Z,10.60
2022-12-29T10:34:28.955Z,10.70
2022-12-29T10:37:10.913Z,10.80
2022-12-29T10:39:45.223Z,10.70
2022-12-29T10:42:22.884Z,10.70
2022-12-29T10:44:52.767Z,10.90
2022-12-29T10:47:25.511Z,10.80
2022-12-29T10:49:52.817Z,10.80
2022-12-29T10:52:23.243Z,10.80
2022-12-29T10:54:52.837Z,10.70
2022-12-29T10:57:28.162Z,10.70
2022-12-29T10:59:55.191Z,10.80
2022-12-29T11:02:59.501Z,10.80
2022-12-29T11:05:45.260Z,10.80
2022-12-29T11:08:20.060Z,10.90
2022-12-29T11:10:58.024Z,10.90
2022-12-29T11:13:38.542Z,10.90
2022-12-29T11:16:06.872Z,10.90
2022-12-29T11:18:38.104Z,11.00
2022-12-29T11:21:24.139Z,11.00
2022-12-29T11:24:00.529Z,11.20
2022-12-29T11:26:34.415Z,11.20
2022-12-29T11:29:09.676Z,11.20
2022-12-29T11:31:51.125Z,11.00
2022-12-29T11:34:20.587Z,11.00
2022-12-29T11:36:49.799Z,10.80
2022-12-29T11:39:42.502Z,10.60
2022-12-29T11:42:30.305Z,10.60
2022-12-29T11:45:16.555Z,10.60
2022-12-29T11:48:20.997Z,10.70
2022-12-29T11:51:02.561Z,10.80
2022-12-29T11:53:51.226Z,10.70
2022-12-29T11:56:23.904Z,10.60
2022-12-29T11:58:51.741Z,10.60
2022-12-29T12:01:34.459Z,10.50
2022-12-29T12:04:05.546Z,10.50
2022-12-29T12:06:37.641Z,10.50
2022-12-29T12:09:17.022Z,10.50
2022-12-29T12:11:49.630Z,10.50
2022-12-29T12:14:40.041Z,10.50
2022-12-29T12:17:48.445Z,10.60
2022-12-29T12:20:29.495Z,10.60
2022-12-29T12:23:15.938Z,10.60
2022-12-29T12:25:56.868Z,10.50
2022-12-29T12:28:55.305Z,10.50
2022-12-29T12:31:25.686Z,10.50
2022-12-29T12:34:04.101Z,10.40
2022-12-29T12:37:15.428Z,10.40
2022-12-29T12:40:09.734Z,10.40
2022-12-29T12:42:36.923Z,10.50
2022-12-29T12:45:41.909Z,10.40
2022-12-29T12:48:46.155Z,10.50
2022-12-29T12:51:28.581Z,10.50
2022-12-29T12:54:11.100Z,10.40
2022-12-29T12:56:52.161Z,10.40
2022-12-29T12:59:42.874Z,10.40
2022-12-29T13:02:15.147Z,10.60
2022-12-29T13:04:46.834Z,10.50
2022-12-29T13:07:30.015Z,10.50
2022-12-29T13:10:13.517Z,10.40
2022-12-29T13:13:27.141Z,10.50
2022-12-29T13:16:23.992Z,10.50
2022-12-29T13:22:06.002Z,10.40
2022-12-29T13:24:59.836Z,10.40
2022-12-29T13:28:06.039Z,10.40
2022-12-29T13:31:18.504Z,10.40
2022-12-29T13:38:21.051Z,10.40
2022-12-29T13:40:58.102Z,10.40
2022-12-29T13:43:45.656Z,10.40
2022-12-29T13:49:43.714Z,10.50
2022-12-29T13:52:19.344Z,10.50
2022-12-29T13:54:58.340Z,10.50
2022-12-29T13:57:49.401Z,10.50
2022-12-29T14:00:20.860Z,10.40
2022-12-29T14:02:58.417Z,10.40
2022-12-29T14:05:26.058Z,10.30
2022-12-29T14:08:16.951Z,10.30
2022-12-29T14:10:50.337Z,10.30
2022-12-29T14:13:36.409Z,10.30
2022-12-29T14:16:09.244Z,10.30
2022-12-29T14:18:45.718Z,10.30
2022-12-29T14:21:15.630Z,10.30
2022-12-29T14:23:48.808Z,10.30
2022-12-29T14:26:18.466Z,10.40
2022-12-29T14:28:49.108Z,10.40
2022-12-29T14:31:16.072Z,10.50
2022-12-29T14:34:07.158Z,10.40
2022-12-29T14:36:41.145Z,10.50
2022-12-29T14:39:36.067Z,10.50
2022-12-29T14:42:11.942Z,10.50
2022-12-29T14:45:04.266Z,10.40
2022-12-29T14:47:41.196Z,10.50
2022-12-29T14:50:14.749Z,10.60
2022-12-29T14:53:04.044Z,10.70
2022-12-29T14:55:53.293Z,10.70
2022-12-29T14:58:46.160Z,10.80
2022-12-29T15:01:24.107Z,10.90
2022-12-29T15:03:55.568Z,10.90
2022-12-29T15:06:26.563Z,10.90
2022-12-29T15:09:25.775Z,10.80
2022-12-29T15:11:57.215Z,10.60
2022-12-29T15:14:37.667Z,9.80
2022-12-29T15:17:40.043Z,9.40
2022-12-29T15:20:29.656Z,9.10
2022-12-29T15:23:04.259Z,8.90
2022-12-29T15:25:32.332Z,8.80
2022-12-29T15:28:14.332Z,8.80
2022-12-29T15:30:56.587Z,8.70
2022-12-29T15:33:27.095Z,8.60
2022-12-29T15:35:56.507Z,8.60
2022-12-29T15:38:40.338Z,8.60
2022-12-29T15:41:57.416Z,8.40
2022-12-29T15:44:40.531Z,8.40
2022-12-29T15:47:20.535Z,8.30
2022-12-29T15:49:57.549Z,8.30
2022-12-29T15:52:25.299Z,8.30
2022-12-29T15:54:56.843Z,8.30
2022-12-29T15:57:30.612Z,8.30
2022-12-29T15:59:57.615Z,8.30
2022-12-29T16:02:25.649Z,8.30
2022-12-29T16:05:16.518Z,8.30
2022-12-29T16:07:53.646Z,8.30
2022-12-29T16:10:51.483Z,8.50
2022-12-29T16:13:24.979Z,8.50
2022-12-29T16:15:58.120Z,8.50
2022-12-29T16:18:36.413Z,8.50
2022-12-29T16:21:16.436Z,8.50
2022-12-29T16:23:48.347Z,8.50
2022-12-29T16:26:20.592Z,8.50
2022-12-29T16:28:56.432Z,8.40
2022-12-29T16:31:24.984Z,8.50
2022-12-29T16:33:56.533Z,8.50
2022-12-29T16:36:32.601Z,8.50
2022-12-29T16:39:22.710Z,8.50
2022-12-29T16:41:52.649Z,8.50
2022-12-29T16:44:31.871Z,8.50
2022-12-29T16:47:19.642Z,8.40
2022-12-29T16:49:54.740Z,8.40
2022-12-29T16:52:27.382Z,8.50
2022-12-29T16:55:01.117Z,8.40
2022-12-29T16:57:37.807Z,8.40
2022-12-29T17:00:09.098Z,8.40
2022-12-29T17:02:54.978Z,8.40
2022-12-29T17:05:22.268Z,8.40
2022-12-29T17:07:52.979Z,8.40
2022-12-29T17:10:20.066Z,8.30
2022-12-29T17:12:49.584Z,8.40
2022-12-29T17:15:26.595Z,8.40
2022-12-29T17:17:57.128Z,8.40
2022-12-29T17:20:31.160Z,8.40
2022-12-29T17:23:00.214Z,8.50
2022-12-29T17:25:46.699Z,8.50
2022-12-29T17:28:24.652Z,8.50
2022-12-29T17:30:55.073Z,8.60
2022-12-29T17:33:23.617Z,8.60
2022-12-29T17:35:55.412Z,8.60
2022-12-29T17:38:33.903Z,8.60
2022-12-29T17:41:03.751Z,8.70
2022-12-29T17:43:36.751Z,8.70
2022-12-29T17:46:07.017Z,8.70
2022-12-29T17:48:33.970Z,8.60
2022-12-29T17:51:01.003Z,8.70
2022-12-29T17:53:29.748Z,8.70
2022-12-29T17:55:58.188Z,8.50
2022-12-29T17:58:27.799Z,8.50
2022-12-29T18:00:58.603Z,8.40
2022-12-29T18:03:34.407Z,8.30
2022-12-29T18:06:04.825Z,8.40
2022-12-29T18:08:32.907Z,8.30
2022-12-29T18:11:00.445Z,8.30
2022-12-29T18:13:39.297Z,8.30
2022-12-29T18:16:13.231Z,8.30
2022-12-29T18:18:41.383Z,8.20
2022-12-29T18:21:34.493Z,8.20
2022-12-29T18:24:01.356Z,8.20
2022-12-29T18:26:31.729Z,8.20
2022-12-29T18:29:01.023Z,8.20
2022-12-29T18:31:30.634Z,8.20
2022-12-29T18:33:59.662Z,8.20
2022-12-29T18:36:29.475Z,8.20
2022-12-29T18:38:57.203Z,8.20
2022-12-29T18:41:30.141Z,8.20
2022-12-29T18:43:59.444Z,8.30
2022-12-29T18:46:26.579Z,8.30
2022-12-29T18:48:54.498Z,8.30
2022-12-29T18:51:25.817Z,8.40
2022-12-29T18:54:05.015Z,8.40
2022-12-29T18:56:32.423Z,8.40
2022-12-29T18:58:59.773Z,8.30
2022-12-29T19:01:33.754Z,8.40
2022-12-29T19:04:01.895Z,8.40
2022-12-29T19:06:29.986Z,8.40
2022-12-29T19:08:58.191Z,8.50
2022-12-29T19:11:27.195Z,8.50
2022-12-29T19:13:57.871Z,8.50
2022-12-29T19:16:27.798Z,8.60
2022-12-29T19:19:08.842Z,8.60
2022-12-29T19:21:38.889Z,8.60
2022-12-29T19:24:10.967Z,8.60
2022-12-29T19:26:40.116Z,8.60
2022-12-29T19:29:14.382Z,8.50
2022-12-29T19:31:42.308Z,8.40
2022-12-29T19:34:16.241Z,8.40
2022-12-29T19:36:46.949Z,8.40
2022-12-29T19:39:18.311Z,8.40
2022-12-29T19:41:49.973Z,8.30
2022-12-29T19:44:17.332Z,8.30
2022-12-29T19:46:44.489Z,8.20
2022-12-29T19:51:55.280Z,8.30
2022-12-29T19:54:24.842Z,8.30
2022-12-29T19:56:55.094Z,8.30
2022-12-29T19:59:27.117Z,8.30
2022-12-29T20:01:55.295Z,8.30
2022-12-29T20:04:25.022Z,8.40
2022-12-29T20:06:52.268Z,8.40
2022-12-29T20:09:19.544Z,8.30
2022-12-29T20:11:46.606Z,8.40
2022-12-29T20:14:13.933Z,8.40
2022-12-29T20:17:09.101Z,8.40
2022-12-29T20:19:40.537Z,8.50
2022-12-29T20:22:11.271Z,8.50
2022-12-29T20:24:43.873Z,8.60
2022-12-29T20:27:16.983Z,8.60
2022-12-29T20:29:46.425Z,8.60
2022-12-29T20:32:17.768Z,8.60
2022-12-29T20:34:48.183Z,8.60
2022-12-29T20:37:15.991Z,8.60
2022-12-29T20:39:44.339Z,8.50
2022-12-29T20:42:12.645Z,8.40
2022-12-29T20:44:40.512Z,8.50
2022-12-29T20:47:08.345Z,8.40
2022-12-29T20:49:35.439Z,8.40
2022-12-29T20:52:07.133Z,8.30
2022-12-29T20:54:39.038Z,8.30
2022-12-29T20:57:06.987Z,8.30
2022-12-29T20:59:34.466Z,8.30
2022-12-29T21:02:02.019Z,8.30
2022-12-29T21:04:50.105Z,8.30
2022-12-29T21:07:20.321Z,8.20
2022-12-29T21:10:15.100Z,8.20
2022-12-29T21:12:46.804Z,8.30
2022-12-29T21:15:15.731Z,8.20
2022-12-29T21:18:00.429Z,8.20
2022-12-29T21:20:33.139Z,8.20
2022-12-29T21:23:02.034Z,8.20
2022-12-29T21:25:39.658Z,8.20
2022-12-29T21:28:09.210Z,8.10
2022-12-29T21:30:36.771Z,8.10
2022-12-29T21:33:05.998Z,8.10
2022-12-29T21:35:39.315Z,8.10
2022-12-29T21:38:08.599Z,8.00
2022-12-29T21:40:40.741Z,8.00
2022-12-29T21:43:11.759Z,8.00
2022-12-29T21:45:38.749Z,8.00
2022-12-29T21:48:24.004Z,8.00
2022-12-29T21:51:12.540Z,7.90
2022-12-29T21:53:42.303Z,8.00
2022-12-29T21:56:18.062Z,7.90
2022-12-29T21:59:06.384Z,8.00
2022-12-29T22:01:56.785Z,7.90
2022-12-29T22:04:44.523Z,7.90
2022-12-29T22:07:31.088Z,7.80
2022-12-29T22:10:20.045Z,7.80
2022-12-29T22:13:00.464Z,7.80
2022-12-29T22:15:31.292Z,7.80
2022-12-29T22:17:59.197Z,7.80
2022-12-29T22:20:28.176Z,7.80
2022-12-29T22:22:58.418Z,7.90
2022-12-29T22:26:30.218Z,7.80
2022-12-29T22:28:59.233Z,7.80
2022-12-29T22:31:30.839Z,7.80
2022-12-29T22:34:02.978Z,7.80
2022-12-29T22:36:30.891Z,7.80
2022-12-29T22:38:58.960Z,7.90
2022-12-29T22:41:41.001Z,7.80
2022-12-29T22:44:14.364Z,7.80
2022-12-29T22:46:45.912Z,7.80
2022-12-29T22:49:14.250Z,7.80
2022-12-29T22:51:42.502Z,7.70
2022-12-29T22:54:13.545Z,7.70
2022-12-29T22:56:53.196Z,7.70
2022-12-29T22:59:25.477Z,7.70
2022-12-29T23:01:53.626Z,7.70
2022-12-29T23:07:15.333Z,7.70
2022-12-29T23:09:42.394Z,7.70
2022-12-29T23:12:09.421Z,7.70
2022-12-29T23:14:40.026Z,7.70
2022-12-29T23:17:11.456Z,7.70
2022-12-29T23:19:40.150Z,7.60
2022-12-29T23:22:10.287Z,7.60
2022-12-29T23:24:39.395Z,7.60
2022-12-29T23:27:06.397Z,7.70
2022-12-29T23:30:02.480Z,7.70
2022-12-29T23:32:57.665Z,7.60
2022-12-29T23:35:54.217Z,7.70
2022-12-29T23:38:23.838Z,7.70
2022-12-29T23:40:54.862Z,7.60
2022-12-29T23:43:28.100Z,7.70
2022-12-29T23:46:00.737Z,7.70
2022-12-29T23:48:29.997Z,7.60
2022-12-29T23:50:58.148Z,7.60
2022-12-29T23:53:25.188Z,7.60
2022-12-29T23:56:03.414Z,7.60
2022-12-29T23:58:31.677Z,7.60
